sensor_id;sensor_type;location;lat;lon;timestamp;pressure;altitude;pressure_sealevel;temperature;humidity
63739;BME280;68816;45.558;10.070;2023-06-10T00:00:15;99536.31;;;23.57;61.13
63739;BME280;68816;45.558;10.070;2023-06-10T00:02:41;99532.97;;;23.38;61.50
63739;BME280;68816;45.558;10.070;2023-06-10T00:05:08;99532.66;;;23.48;61.56
63739;BME280;68816;45.558;10.070;2023-06-10T00:07:34;99534.66;;;23.48;61.48
63739;BME280;68816;45.558;10.070;2023-06-10T00:10:04;99521.69;;;23.38;61.96
63739;BME280;68816;45.558;10.070;2023-06-10T00:12:31;99530.50;;;23.54;61.72
63739;BME280;68816;45.558;10.070;2023-06-10T00:14:58;99523.19;;;23.44;61.96
63739;BME280;68816;45.558;10.070;2023-06-10T00:17:23;99524.53;;;23.29;60.70
63739;BME280;68816;45.558;10.070;2023-06-10T00:19:50;99517.22;;;23.28;62.02
63739;BME280;68816;45.558;10.070;2023-06-10T00:22:15;99514.06;;;23.39;61.53
63739;BME280;68816;45.558;10.070;2023-06-10T00:24:41;99517.19;;;23.46;60.41
63739;BME280;68816;45.558;10.070;2023-06-10T00:27:07;99518.06;;;23.46;61.12
63739;BME280;68816;45.558;10.070;2023-06-10T00:29:33;99510.25;;;23.52;59.62
63739;BME280;68816;45.558;10.070;2023-06-10T00:31:58;99517.84;;;23.43;59.47
63739;BME280;68816;45.558;10.070;2023-06-10T00:34:24;99507.44;;;23.52;59.75
63739;BME280;68816;45.558;10.070;2023-06-10T00:36:50;99515.91;;;23.52;59.85
63739;BME280;68816;45.558;10.070;2023-06-10T00:39:15;99513.56;;;23.54;60.37
63739;BME280;68816;45.558;10.070;2023-06-10T00:41:42;99523.50;;;23.60;60.44
63739;BME280;68816;45.558;10.070;2023-06-10T00:44:07;99523.50;;;23.60;60.43
63739;BME280;68816;45.558;10.070;2023-06-10T00:46:33;99520.34;;;23.44;60.80
63739;BME280;68816;45.558;10.070;2023-06-10T00:49:00;99532.47;;;23.45;61.75
63739;BME280;68816;45.558;10.070;2023-06-10T00:51:26;99535.16;;;23.50;61.68
63739;BME280;68816;45.558;10.070;2023-06-10T00:53:52;99533.63;;;23.44;62.13
63739;BME280;68816;45.558;10.070;2023-06-10T00:56:18;99535.63;;;23.43;61.61
63739;BME280;68816;45.558;10.070;2023-06-10T00:58:44;99527.19;;;23.52;61.22
63739;BME280;68816;45.558;10.070;2023-06-10T01:01:09;99525.69;;;23.54;61.28
63739;BME280;68816;45.558;10.070;2023-06-10T01:03:36;99526.00;;;23.44;60.81
63739;BME280;68816;45.558;10.070;2023-06-10T01:06:14;99523.72;;;23.46;61.06
63739;BME280;68816;45.558;10.070;2023-06-10T01:11:59;99520.19;;;23.32;60.16
63739;BME280;68816;45.558;10.070;2023-06-10T01:14:28;99511.06;;;23.44;60.02
63739;BME280;68816;45.558;10.070;2023-06-10T01:16:54;99514.69;;;23.35;59.76
63739;BME280;68816;45.558;10.070;2023-06-10T01:19:20;99509.56;;;23.38;59.64
63739;BME280;68816;45.558;10.070;2023-06-10T01:21:50;99512.25;;;23.34;59.73
63739;BME280;68816;45.558;10.070;2023-06-10T01:24:15;99513.91;;;23.35;59.81
63739;BME280;68816;45.558;10.070;2023-06-10T01:26:44;99509.25;;;23.48;59.87
63739;BME280;68816;45.558;10.070;2023-06-10T01:29:28;99508.09;;;23.49;61.32
63739;BME280;68816;45.558;10.070;2023-06-10T01:32:05;99496.16;;;23.52;61.51
63739;BME280;68816;45.558;10.070;2023-06-10T01:34:33;99504.78;;;23.47;61.44
63739;BME280;68816;45.558;10.070;2023-06-10T01:37:02;99509.91;;;23.45;60.56
63739;BME280;68816;45.558;10.070;2023-06-10T01:39:29;99500.25;;;23.54;61.07
63739;BME280;68816;45.558;10.070;2023-06-10T01:41:56;99498.13;;;23.51;60.71
63739;BME280;68816;45.558;10.070;2023-06-10T01:44:22;99500.63;;;23.53;60.85
63739;BME280;68816;45.558;10.070;2023-06-10T01:46:48;99507.25;;;23.48;60.15
63739;BME280;68816;45.558;10.070;2023-06-10T01:49:14;99506.09;;;23.58;59.65
63739;BME280;68816;45.558;10.070;2023-06-10T01:51:40;99508.91;;;23.41;59.93
63739;BME280;68816;45.558;10.070;2023-06-10T01:54:05;99505.25;;;23.49;61.31
63739;BME280;68816;45.558;10.070;2023-06-10T01:56:32;99504.44;;;23.48;60.32
63739;BME280;68816;45.558;10.070;2023-06-10T01:58:57;99497.81;;;23.53;60.43
63739;BME280;68816;45.558;10.070;2023-06-10T02:01:27;99490.97;;;23.54;61.45
63739;BME280;68816;45.558;10.070;2023-06-10T02:03:52;99501.59;;;23.48;61.57
63739;BME280;68816;45.558;10.070;2023-06-10T02:06:18;99503.75;;;23.43;61.24
63739;BME280;68816;45.558;10.070;2023-06-10T02:08:43;99499.94;;;23.39;61.48
63739;BME280;68816;45.558;10.070;2023-06-10T02:11:09;99497.94;;;23.30;61.63
63739;BME280;68816;45.558;10.070;2023-06-10T02:13:34;99492.81;;;23.32;62.20
63739;BME280;68816;45.558;10.070;2023-06-10T02:16:00;99485.50;;;23.31;63.19
63739;BME280;68816;45.558;10.070;2023-06-10T02:18:26;99482.22;;;23.21;62.09
63739;BME280;68816;45.558;10.070;2023-06-10T02:20:53;99487.69;;;23.34;62.67
63739;BME280;68816;45.558;10.070;2023-06-10T02:23:19;99488.16;;;23.45;62.01
63739;BME280;68816;45.558;10.070;2023-06-10T02:25:44;99483.66;;;23.35;61.96
63739;BME280;68816;45.558;10.070;2023-06-10T02:28:10;99490.97;;;23.37;62.50
63739;BME280;68816;45.558;10.070;2023-06-10T02:30:36;99485.19;;;23.33;61.88
63739;BME280;68816;45.558;10.070;2023-06-10T02:33:03;99492.31;;;23.30;62.45
63739;BME280;68816;45.558;10.070;2023-06-10T02:35:30;99492.47;;;23.43;62.11
63739;BME280;68816;45.558;10.070;2023-06-10T02:37:55;99485.03;;;23.47;62.95
63739;BME280;68816;45.558;10.070;2023-06-10T02:40:21;99495.13;;;23.39;62.71
63739;BME280;68816;45.558;10.070;2023-06-10T02:42:46;99484.00;;;23.43;63.65
63739;BME280;68816;45.558;10.070;2023-06-10T02:45:12;99487.00;;;23.38;64.62
63739;BME280;68816;45.558;10.070;2023-06-10T02:47:38;99488.16;;;23.37;64.92
63739;BME280;68816;45.558;10.070;2023-06-10T02:50:05;99495.63;;;23.32;65.32
63739;BME280;68816;45.558;10.070;2023-06-10T02:52:30;99489.50;;;23.30;65.51
63739;BME280;68816;45.558;10.070;2023-06-10T02:54:56;99486.19;;;23.28;65.73
63739;BME280;68816;45.558;10.070;2023-06-10T02:57:22;99485.84;;;23.13;66.14
63739;BME280;68816;45.558;10.070;2023-06-10T02:59:47;99485.34;;;23.19;64.74
63739;BME280;68816;45.558;10.070;2023-06-10T03:02:13;99493.81;;;23.19;64.35
63739;BME280;68816;45.558;10.070;2023-06-10T03:04:38;99497.31;;;23.16;64.95
63739;BME280;68816;45.558;10.070;2023-06-10T03:07:04;99495.47;;;23.20;64.83
63739;BME280;68816;45.558;10.070;2023-06-10T03:09:32;99496.66;;;23.11;64.78
63739;BME280;68816;45.558;10.070;2023-06-10T03:11:58;99494.97;;;23.18;65.64
63739;BME280;68816;45.558;10.070;2023-06-10T03:14:25;99494.31;;;23.21;65.88
63739;BME280;68816;45.558;10.070;2023-06-10T03:16:50;99496.81;;;23.14;65.93
63739;BME280;68816;45.558;10.070;2023-06-10T03:19:15;99498.97;;;23.26;65.89
63739;BME280;68816;45.558;10.070;2023-06-10T03:21:43;99498.31;;;23.20;64.56
63739;BME280;68816;45.558;10.070;2023-06-10T03:24:09;99494.66;;;23.11;64.41
63739;BME280;68816;45.558;10.070;2023-06-10T03:26:36;99498.66;;;23.10;64.54
63739;BME280;68816;45.558;10.070;2023-06-10T03:29:01;99498.66;;;23.10;64.51
63739;BME280;68816;45.558;10.070;2023-06-10T03:31:27;99496.16;;;23.09;65.03
63739;BME280;68816;45.558;10.070;2023-06-10T03:33:52;99505.97;;;22.94;63.81
63739;BME280;68816;45.558;10.070;2023-06-10T03:36:18;99503.59;;;22.79;63.80
63739;BME280;68816;45.558;10.070;2023-06-10T03:38:43;99504.13;;;22.81;63.25
63739;BME280;68816;45.558;10.070;2023-06-10T03:41:08;99502.63;;;22.92;63.03
63739;BME280;68816;45.558;10.070;2023-06-10T03:43:35;99500.63;;;22.84;63.23
63739;BME280;68816;45.558;10.070;2023-06-10T03:46:00;99502.97;;;22.99;62.73
63739;BME280;68816;45.558;10.070;2023-06-10T03:48:26;99500.63;;;22.84;63.46
63739;BME280;68816;45.558;10.070;2023-06-10T03:50:51;99503.94;;;22.77;63.79
63739;BME280;68816;45.558;10.070;2023-06-10T03:53:17;99507.75;;;22.81;63.68
63739;BME280;68816;45.558;10.070;2023-06-10T03:55:42;99513.22;;;22.78;63.92
63739;BME280;68816;45.558;10.070;2023-06-10T03:58:08;99506.59;;;22.74;64.70
63739;BME280;68816;45.558;10.070;2023-06-10T04:00:33;99510.84;;;22.63;65.14
63739;BME280;68816;45.558;10.070;2023-06-10T04:03:09;99511.53;;;22.60;65.69
63739;BME280;68816;45.558;10.070;2023-06-10T04:05:39;99510.69;;;22.59;65.58
63739;BME280;68816;45.558;10.070;2023-06-10T04:08:05;99505.19;;;22.54;65.66
63739;BME280;68816;45.558;10.070;2023-06-10T04:10:32;99504.88;;;22.56;65.50
63739;BME280;68816;45.558;10.070;2023-06-10T04:12:57;99513.16;;;22.61;65.71
63739;BME280;68816;45.558;10.070;2023-06-10T04:15:23;99507.22;;;22.53;65.58
63739;BME280;68816;45.558;10.070;2023-06-10T04:17:48;99510.34;;;22.61;65.04
63739;BME280;68816;45.558;10.070;2023-06-10T04:20:14;99508.41;;;22.78;64.71
63739;BME280;68816;45.558;10.070;2023-06-10T04:22:40;99520.53;;;22.79;65.10
63739;BME280;68816;45.558;10.070;2023-06-10T04:25:06;99514.41;;;22.85;64.54
63739;BME280;68816;45.558;10.070;2023-06-10T04:27:32;99512.06;;;22.96;64.57
63739;BME280;68816;45.558;10.070;2023-06-10T04:29:58;99511.25;;;23.04;65.11
63739;BME280;68816;45.558;10.070;2023-06-10T04:32:24;99512.91;;;23.05;65.72
63739;BME280;68816;45.558;10.070;2023-06-10T04:34:49;99507.09;;;23.02;64.98
63739;BME280;68816;45.558;10.070;2023-06-10T04:37:14;99512.09;;;23.05;66.47
63739;BME280;68816;45.558;10.070;2023-06-10T04:39:40;99504.75;;;23.12;65.84
63739;BME280;68816;45.558;10.070;2023-06-10T04:42:06;99509.75;;;23.24;65.80
63739;BME280;68816;45.558;10.070;2023-06-10T04:44:32;99509.59;;;23.20;65.17
63739;BME280;68816;45.558;10.070;2023-06-10T04:46:57;99507.91;;;23.19;65.12
63739;BME280;68816;45.558;10.070;2023-06-10T04:49:23;99507.94;;;23.11;65.52
63739;BME280;68816;45.558;10.070;2023-06-10T04:51:48;99509.41;;;23.25;63.39
63739;BME280;68816;45.558;10.070;2023-06-10T04:54:14;99501.97;;;23.21;63.92
63739;BME280;68816;45.558;10.070;2023-06-10T04:56:39;99499.13;;;23.29;63.14
63739;BME280;68816;45.558;10.070;2023-06-10T04:59:05;99510.44;;;23.29;63.16
63739;BME280;68816;45.558;10.070;2023-06-10T05:01:30;99503.78;;;23.25;64.25
63739;BME280;68816;45.558;10.070;2023-06-10T05:03:55;99503.94;;;23.29;63.74
63739;BME280;68816;45.558;10.070;2023-06-10T05:06:21;99502.94;;;23.33;64.04
63739;BME280;68816;45.558;10.070;2023-06-10T05:08:46;99507.09;;;23.27;64.82
63739;BME280;68816;45.558;10.070;2023-06-10T05:11:12;99509.25;;;23.30;64.56
63739;BME280;68816;45.558;10.070;2023-06-10T05:13:37;99502.75;;;23.39;64.50
63739;BME280;68816;45.558;10.070;2023-06-10T05:16:05;99508.25;;;23.35;64.79
63739;BME280;68816;45.558;10.070;2023-06-10T05:18:31;99513.88;;;23.44;63.75
63739;BME280;68816;45.558;10.070;2023-06-10T05:20:57;99519.84;;;23.59;63.95
63739;BME280;68816;45.558;10.070;2023-06-10T05:23:22;99517.56;;;23.53;63.71
63739;BME280;68816;45.558;10.070;2023-06-10T05:25:48;99515.41;;;23.58;62.19
63739;BME280;68816;45.558;10.070;2023-06-10T05:28:13;99517.19;;;23.54;62.41
63739;BME280;68816;45.558;10.070;2023-06-10T05:30:39;99514.88;;;23.56;61.78
63739;BME280;68816;45.558;10.070;2023-06-10T05:33:05;99516.03;;;23.64;62.04
63739;BME280;68816;45.558;10.070;2023-06-10T05:35:30;99517.03;;;23.59;61.78
63739;BME280;68816;45.558;10.070;2023-06-10T05:37:56;99518.34;;;23.62;61.57
63739;BME280;68816;45.558;10.070;2023-06-10T05:40:22;99492.31;;;23.56;62.66
63739;BME280;68816;45.558;10.070;2023-06-10T05:42:47;99511.84;;;23.79;61.79
63739;BME280;68816;45.558;10.070;2023-06-10T05:45:12;99516.28;;;23.88;62.85
63739;BME280;68816;45.558;10.070;2023-06-10T05:47:38;99518.44;;;23.91;61.24
63739;BME280;68816;45.558;10.070;2023-06-10T05:50:04;99520.44;;;23.99;62.47
63739;BME280;68816;45.558;10.070;2023-06-10T05:52:33;99515.63;;;23.91;60.67
63739;BME280;68816;45.558;10.070;2023-06-10T05:54:59;99526.72;;;23.96;60.29
63739;BME280;68816;45.558;10.070;2023-06-10T05:57:25;99519.59;;;23.90;62.36
63739;BME280;68816;45.558;10.070;2023-06-10T05:59:51;99527.38;;;24.02;60.57
63739;BME280;68816;45.558;10.070;2023-06-10T06:02:17;99520.75;;;23.98;59.42
63739;BME280;68816;45.558;10.070;2023-06-10T06:04:42;99524.69;;;24.05;59.62
63739;BME280;68816;45.558;10.070;2023-06-10T06:07:08;99527.63;;;24.17;60.30
63739;BME280;68816;45.558;10.070;2023-06-10T06:09:33;99529.19;;;24.06;59.09
63739;BME280;68816;45.558;10.070;2023-06-10T06:11:59;99526.22;;;23.94;59.66
63739;BME280;68816;45.558;10.070;2023-06-10T06:14:25;99529.38;;;24.01;59.83
63739;BME280;68816;45.558;10.070;2023-06-10T06:16:50;99527.00;;;24.12;61.04
63739;BME280;68816;45.558;10.070;2023-06-10T06:19:15;99527.25;;;23.90;61.65
63739;BME280;68816;45.558;10.070;2023-06-10T06:21:41;99525.91;;;23.96;60.46
63739;BME280;68816;45.558;10.070;2023-06-10T06:24:07;99538.59;;;23.81;61.98
63739;BME280;68816;45.558;10.070;2023-06-10T06:26:32;99533.59;;;23.78;62.06
63739;BME280;68816;45.558;10.070;2023-06-10T06:28:57;99539.94;;;23.66;62.09
63739;BME280;68816;45.558;10.070;2023-06-10T06:31:23;99540.25;;;23.73;62.21
63739;BME280;68816;45.558;10.070;2023-06-10T06:33:49;99542.09;;;23.61;61.68
63739;BME280;68816;45.558;10.070;2023-06-10T06:36:14;99542.44;;;23.68;62.18
63739;BME280;68816;45.558;10.070;2023-06-10T06:38:40;99537.41;;;23.82;61.18
63739;BME280;68816;45.558;10.070;2023-06-10T06:41:05;99536.75;;;23.85;61.46
63739;BME280;68816;45.558;10.070;2023-06-10T06:43:32;99535.94;;;23.76;61.51
63739;BME280;68816;45.558;10.070;2023-06-10T06:45:58;99533.00;;;23.47;62.21
63739;BME280;68816;45.558;10.070;2023-06-10T06:48:23;99529.94;;;23.86;61.59
63739;BME280;68816;45.558;10.070;2023-06-10T06:50:49;99537.78;;;23.38;62.68
63739;BME280;68816;45.558;10.070;2023-06-10T06:53:15;99541.44;;;23.64;62.56
63739;BME280;68816;45.558;10.070;2023-06-10T06:55:40;99531.78;;;23.65;62.51
63739;BME280;68816;45.558;10.070;2023-06-10T06:58:06;99541.09;;;23.65;62.39
63739;BME280;68816;45.558;10.070;2023-06-10T07:00:31;99545.91;;;23.73;62.52
63739;BME280;68816;45.558;10.070;2023-06-10T07:02:57;99538.31;;;23.48;62.51
63739;BME280;68816;45.558;10.070;2023-06-10T07:05:23;99540.78;;;23.50;62.99
63739;BME280;68816;45.558;10.070;2023-06-10T07:07:51;99545.41;;;23.71;62.12
63739;BME280;68816;45.558;10.070;2023-06-10T07:10:23;99549.19;;;23.93;61.37
63739;BME280;68816;45.558;10.070;2023-06-10T07:12:49;99536.91;;;23.80;61.60
63739;BME280;68816;45.558;10.070;2023-06-10T07:15:15;99546.69;;;23.91;61.73
63739;BME280;68816;45.558;10.070;2023-06-10T07:17:41;99552.53;;;23.86;61.74
63739;BME280;68816;45.558;10.070;2023-06-10T07:20:06;99551.19;;;23.92;61.25
63739;BME280;68816;45.558;10.070;2023-06-10T07:22:32;99551.31;;;24.04;61.20
63739;BME280;68816;45.558;10.070;2023-06-10T07:24:58;99546.19;;;23.98;60.77
63739;BME280;68816;45.558;10.070;2023-06-10T07:27:23;99546.84;;;23.95;60.25
63739;BME280;68816;45.558;10.070;2023-06-10T07:29:50;99543.63;;;24.22;60.03
63739;BME280;68816;45.558;10.070;2023-06-10T07:32:15;99549.41;;;24.17;59.64
63739;BME280;68816;45.558;10.070;2023-06-10T07:34:41;99552.94;;;24.23;59.96
63739;BME280;68816;45.558;10.070;2023-06-10T07:37:06;99535.47;;;24.12;58.35
63739;BME280;68816;45.558;10.070;2023-06-10T07:39:32;99539.78;;;24.56;58.79
63739;BME280;68816;45.558;10.070;2023-06-10T07:41:57;99533.16;;;24.52;57.67
63739;BME280;68816;45.558;10.070;2023-06-10T07:44:23;99535.72;;;24.36;56.41
63739;BME280;68816;45.558;10.070;2023-06-10T07:46:49;99537.69;;;24.44;56.24
63739;BME280;68816;45.558;10.070;2023-06-10T07:49:14;99530.13;;;24.86;57.74
63739;BME280;68816;45.558;10.070;2023-06-10T07:51:40;99537.81;;;25.07;55.73
63739;BME280;68816;45.558;10.070;2023-06-10T07:54:05;99535.69;;;25.04;56.18
63739;BME280;68816;45.558;10.070;2023-06-10T07:56:31;99531.88;;;25.20;55.20
63739;BME280;68816;45.558;10.070;2023-06-10T07:58:57;99529.59;;;25.14;55.55
63739;BME280;68816;45.558;10.070;2023-06-10T08:01:23;99519.94;;;25.15;56.11
63739;BME280;68816;45.558;10.070;2023-06-10T08:03:49;99528.69;;;25.01;56.22
63739;BME280;68816;45.558;10.070;2023-06-10T08:06:14;99527.38;;;24.99;55.03
63739;BME280;68816;45.558;10.070;2023-06-10T08:08:42;99530.63;;;25.30;55.78
63739;BME280;68816;45.558;10.070;2023-06-10T08:11:11;99528.38;;;24.73;56.37
63739;BME280;68816;45.558;10.070;2023-06-10T08:13:37;99528.19;;;24.49;57.18
63739;BME280;68816;45.558;10.070;2023-06-10T08:16:03;99523.88;;;24.72;57.15
63739;BME280;68816;45.558;10.070;2023-06-10T08:18:29;99527.81;;;25.09;56.42
63739;BME280;68816;45.558;10.070;2023-06-10T08:20:54;99523.25;;;24.87;55.52
63739;BME280;68816;45.558;10.070;2023-06-10T08:23:20;99526.47;;;24.86;55.98
63739;BME280;68816;45.558;10.070;2023-06-10T08:25:46;99521.28;;;25.29;54.74
63739;BME280;68816;45.558;10.070;2023-06-10T08:28:11;99528.63;;;25.30;54.54
63739;BME280;68816;45.558;10.070;2023-06-10T08:30:37;99529.66;;;25.26;54.46
63739;BME280;68816;45.558;10.070;2023-06-10T08:33:02;99526.78;;;25.14;55.02
63739;BME280;68816;45.558;10.070;2023-06-10T08:35:28;99528.75;;;25.34;56.64
63739;BME280;68816;45.558;10.070;2023-06-10T08:37:53;99531.41;;;25.51;54.24
63739;BME280;68816;45.558;10.070;2023-06-10T08:40:19;99530.63;;;25.30;52.92
63739;BME280;68816;45.558;10.070;2023-06-10T08:43:06;99532.25;;;25.52;53.83
63739;BME280;68816;45.558;10.070;2023-06-10T08:45:35;99522.38;;;25.58;52.33
63739;BME280;68816;45.558;10.070;2023-06-10T08:48:02;99530.63;;;25.51;54.03
63739;BME280;68816;45.558;10.070;2023-06-10T08:50:34;99528.81;;;25.67;53.33
63739;BME280;68816;45.558;10.070;2023-06-10T08:53:00;99534.72;;;25.53;52.57
63739;BME280;68816;45.558;10.070;2023-06-10T08:55:30;99533.84;;;25.41;51.32
63739;BME280;68816;45.558;10.070;2023-06-10T08:57:59;99532.09;;;25.69;52.73
63739;BME280;68816;45.558;10.070;2023-06-10T09:00:24;99525.44;;;25.86;52.64
63739;BME280;68816;45.558;10.070;2023-06-10T09:02:51;99528.41;;;25.56;51.73
63739;BME280;68816;45.558;10.070;2023-06-10T09:05:17;99537.19;;;25.75;49.90
63739;BME280;68816;45.558;10.070;2023-06-10T09:07:43;99521.56;;;26.02;49.93
63739;BME280;68816;45.558;10.070;2023-06-10T09:10:10;99529.50;;;26.09;49.95
63739;BME280;68816;45.558;10.070;2023-06-10T09:12:36;99537.84;;;26.38;49.85
63739;BME280;68816;45.558;10.070;2023-06-10T09:15:03;99534.09;;;26.01;49.63
63739;BME280;68816;45.558;10.070;2023-06-10T09:17:29;99538.97;;;25.80;49.28
63739;BME280;68816;45.558;10.070;2023-06-10T09:19:55;99528.63;;;25.84;50.32
63739;BME280;68816;45.558;10.070;2023-06-10T09:22:23;99541.28;;;26.11;49.21
63739;BME280;68816;45.558;10.070;2023-06-10T09:24:49;99534.78;;;25.98;48.51
63739;BME280;68816;45.558;10.070;2023-06-10T09:27:14;99537.97;;;25.97;49.60
63739;BME280;68816;45.558;10.070;2023-06-10T09:29:53;99536.34;;;26.08;49.48
63739;BME280;68816;45.558;10.070;2023-06-10T09:32:19;99534.91;;;26.02;48.56
63739;BME280;68816;45.558;10.070;2023-06-10T09:34:46;99525.47;;;26.10;49.32
63739;BME280;68816;45.558;10.070;2023-06-10T09:37:12;99518.75;;;26.02;50.67
63739;BME280;68816;45.558;10.070;2023-06-10T09:39:40;99527.59;;;26.13;51.14
63739;BME280;68816;45.558;10.070;2023-06-10T09:42:26;99522.78;;;26.62;50.57
63739;BME280;68816;45.558;10.070;2023-06-10T09:44:52;99529.53;;;26.57;49.57
63739;BME280;68816;45.558;10.070;2023-06-10T09:47:22;99526.47;;;26.63;48.88
63739;BME280;68816;45.558;10.070;2023-06-10T09:49:50;99527.88;;;26.56;49.05
63739;BME280;68816;45.558;10.070;2023-06-10T09:52:23;99515.34;;;26.70;49.24
63739;BME280;68816;45.558;10.070;2023-06-10T09:54:49;99518.91;;;26.79;49.18
63739;BME280;68816;45.558;10.070;2023-06-10T09:57:16;99507.81;;;26.62;48.54
63739;BME280;68816;45.558;10.070;2023-06-10T09:59:42;99521.03;;;26.57;48.18
63739;BME280;68816;45.558;10.070;2023-06-10T10:02:13;99511.81;;;26.73;48.84
63739;BME280;68816;45.558;10.070;2023-06-10T10:04:39;99513.31;;;26.82;48.75
63739;BME280;68816;45.558;10.070;2023-06-10T10:07:05;99505.16;;;26.81;48.90
63739;BME280;68816;45.558;10.070;2023-06-10T10:09:32;99514.66;;;26.73;49.41
63739;BME280;68816;45.558;10.070;2023-06-10T10:11:59;99515.69;;;26.92;49.11
63739;BME280;68816;45.558;10.070;2023-06-10T10:14:27;99512.84;;;27.32;47.02
63739;BME280;68816;45.558;10.070;2023-06-10T10:16:55;99519.16;;;27.66;47.89
63739;BME280;68816;45.558;10.070;2023-06-10T10:19:25;99515.38;;;27.22;48.25
63739;BME280;68816;45.558;10.070;2023-06-10T10:22:07;99517.09;;;26.98;47.52
63739;BME280;68816;45.558;10.070;2023-06-10T10:24:39;99515.34;;;26.94;47.62
63739;BME280;68816;45.558;10.070;2023-06-10T10:27:20;99510.69;;;27.42;48.52
63739;BME280;68816;45.558;10.070;2023-06-10T10:29:48;99497.94;;;27.35;47.15
63739;BME280;68816;45.558;10.070;2023-06-10T10:32:18;99509.00;;;27.25;48.03
63739;BME280;68816;45.558;10.070;2023-06-10T10:34:55;99492.34;;;27.11;45.80
63739;BME280;68816;45.558;10.070;2023-06-10T10:37:23;99498.47;;;27.25;47.56
63739;BME280;68816;45.558;10.070;2023-06-10T10:39:49;99496.88;;;27.00;48.03
63739;BME280;68816;45.558;10.070;2023-06-10T10:42:16;99502.63;;;27.16;48.00
63739;BME280;68816;45.558;10.070;2023-06-10T10:44:42;99501.91;;;27.19;47.66
63739;BME280;68816;45.558;10.070;2023-06-10T10:47:08;99506.00;;;26.81;48.17
63739;BME280;68816;45.558;10.070;2023-06-10T10:49:35;99499.44;;;27.17;47.13
63739;BME280;68816;45.558;10.070;2023-06-10T10:52:02;99493.34;;;26.79;45.08
63739;BME280;68816;45.558;10.070;2023-06-10T10:54:35;99490.16;;;26.92;47.93
63739;BME280;68816;45.558;10.070;2023-06-10T10:57:11;99490.75;;;26.74;50.14
63739;BME280;68816;45.558;10.070;2023-06-10T10:59:45;99494.69;;;26.45;50.84
63739;BME280;68816;45.558;10.070;2023-06-10T11:02:15;99486.41;;;26.64;51.24
63739;BME280;68816;45.558;10.070;2023-06-10T11:04:48;99487.91;;;26.74;51.43
63739;BME280;68816;45.558;10.070;2023-06-10T11:07:15;99481.28;;;26.94;51.18
63739;BME280;68816;45.558;10.070;2023-06-10T11:10:10;99479.75;;;26.84;50.99
63739;BME280;68816;45.558;10.070;2023-06-10T11:15:27;99476.34;;;26.79;50.17
63739;BME280;68816;45.558;10.070;2023-06-10T11:26:18;99487.81;;;27.22;48.94
63739;BME280;68816;45.558;10.070;2023-06-10T11:31:21;99480.00;;;27.59;48.04
63739;BME280;68816;45.558;10.070;2023-06-10T11:33:47;99486.31;;;27.41;47.10
63739;BME280;68816;45.558;10.070;2023-06-10T11:36:14;99484.38;;;27.57;47.57
63739;BME280;68816;45.558;10.070;2023-06-10T11:38:43;99483.03;;;27.82;44.84
63739;BME280;68816;45.558;10.070;2023-06-10T11:41:13;99483.59;;;28.03;44.50
63739;BME280;68816;45.558;10.070;2023-06-10T11:43:45;99477.50;;;28.17;44.02
63739;BME280;68816;45.558;10.070;2023-06-10T11:46:14;99480.56;;;27.96;43.22
63739;BME280;68816;45.558;10.070;2023-06-10T11:48:59;99477.38;;;28.13;44.26
63739;BME280;68816;45.558;10.070;2023-06-10T11:51:26;99470.38;;;28.58;44.01
63739;BME280;68816;45.558;10.070;2023-06-10T11:53:53;99460.88;;;28.35;43.93
63739;BME280;68816;45.558;10.070;2023-06-10T11:56:23;99460.47;;;28.52;43.12
63739;BME280;68816;45.558;10.070;2023-06-10T11:59:02;99458.31;;;28.14;43.70
63739;BME280;68816;45.558;10.070;2023-06-10T12:01:36;99456.59;;;28.60;41.90
63739;BME280;68816;45.558;10.070;2023-06-10T12:04:10;99454.78;;;28.52;41.38
63739;BME280;68816;45.558;10.070;2023-06-10T12:06:44;99450.50;;;28.77;43.07
63739;BME280;68816;45.558;10.070;2023-06-10T12:09:20;99449.19;;;28.55;41.41
63739;BME280;68816;45.558;10.070;2023-06-10T12:11:57;99453.72;;;28.41;41.73
63739;BME280;68816;45.558;10.070;2023-06-10T12:14:59;99435.13;;;28.63;41.70
63739;BME280;68816;45.558;10.070;2023-06-10T12:20:04;99429.13;;;28.68;44.20
63739;BME280;68816;45.558;10.070;2023-06-10T12:22:40;99423.44;;;29.22;42.27
63739;BME280;68816;45.558;10.070;2023-06-10T12:25:07;99413.22;;;29.21;39.86
63739;BME280;68816;45.558;10.070;2023-06-10T12:27:33;99421.91;;;29.47;38.99
63739;BME280;68816;45.558;10.070;2023-06-10T12:30:00;99413.28;;;29.86;41.64
63739;BME280;68816;45.558;10.070;2023-06-10T12:32:42;99418.63;;;29.45;40.24
63739;BME280;68816;45.558;10.070;2023-06-10T12:35:08;99410.22;;;29.14;42.27
63739;BME280;68816;45.558;10.070;2023-06-10T12:37:34;99420.13;;;29.00;41.86
63739;BME280;68816;45.558;10.070;2023-06-10T12:40:04;99416.38;;;28.96;42.82
63739;BME280;68816;45.558;10.070;2023-06-10T12:42:31;99416.84;;;28.98;42.88
63739;BME280;68816;45.558;10.070;2023-06-10T12:44:59;99424.47;;;29.14;43.27
63739;BME280;68816;45.558;10.070;2023-06-10T12:47:33;99417.41;;;29.27;42.93
63739;BME280;68816;45.558;10.070;2023-06-10T12:50:03;99417.13;;;29.32;42.30
63739;BME280;68816;45.558;10.070;2023-06-10T12:52:30;99413.09;;;29.75;42.53
63739;BME280;68816;45.558;10.070;2023-06-10T12:54:55;99420.66;;;30.09;41.89
63739;BME280;68816;45.558;10.070;2023-06-10T12:57:22;99415.28;;;29.85;42.01
63739;BME280;68816;45.558;10.070;2023-06-10T12:59:48;99413.13;;;29.98;43.39
63739;BME280;68816;45.558;10.070;2023-06-10T13:02:22;99418.28;;;29.69;42.77
63739;BME280;68816;45.558;10.070;2023-06-10T13:04:49;99412.81;;;29.84;42.28
63739;BME280;68816;45.558;10.070;2023-06-10T13:07:15;99408.56;;;29.32;42.68
63739;BME280;68816;45.558;10.070;2023-06-10T13:09:41;99411.72;;;29.27;43.37